sensor_id;sensor_type;location;lat;lon;timestamp;P1;durP1;ratioP1;P2;durP2;ratioP2
77591;SDS011;66891;46.884;17.436;2024-02-16T00:02:06;19.00;;;8.67;;
77591;SDS011;66891;46.884;17.436;2024-02-16T00:04:32;17.95;;;8.40;;
77591;SDS011;66891;46.884;17.436;2024-02-16T00:07:00;17.60;;;8.90;;
77591;SDS011;66891;46.884;17.436;2024-02-16T00:09:29;18.95;;;9.32;;
77591;SDS011;66891;46.884;17.436;2024-02-16T00:11:56;21.63;;;8.75;;
77591;SDS011;66891;46.884;17.436;2024-02-16T00:14:23;20.40;;;9.07;;
77591;SDS011;66891;46.884;17.436;2024-02-16T00:16:50;19.73;;;8.82;;
77591;SDS011;66891;46.884;17.436;2024-02-16T00:19:16;19.58;;;7.95;;
77591;SDS011;66891;46.884;17.436;2024-02-16T00:21:44;19.73;;;9.10;;
77591;SDS011;66891;46.884;17.436;2024-02-16T00:24:11;21.52;;;9.75;;
77591;SDS011;66891;46.884;17.436;2024-02-16T00:26:39;21.70;;;9.73;;
77591;SDS011;66891;46.884;17.436;2024-02-16T00:29:06;20.67;;;9.65;;
77591;SDS011;66891;46.884;17.436;2024-02-16T00:31:34;21.58;;;9.90;;
77591;SDS011;66891;46.884;17.436;2024-02-16T00:34:01;19.10;;;8.80;;
77591;SDS011;66891;46.884;17.436;2024-02-16T00:36:28;18.92;;;8.93;;
77591;SDS011;66891;46.884;17.436;2024-02-16T00:38:58;19.03;;;8.50;;
77591;SDS011;66891;46.884;17.436;2024-02-16T00:41:25;20.60;;;8.38;;
77591;SDS011;66891;46.884;17.436;2024-02-16T00:43:54;17.50;;;8.18;;
77591;SDS011;66891;46.884;17.436;2024-02-16T00:46:21;17.80;;;8.85;;
77591;SDS011;66891;46.884;17.436;2024-02-16T00:48:49;18.73;;;8.45;;
77591;SDS011;66891;46.884;17.436;2024-02-16T00:51:17;21.73;;;8.67;;
77591;SDS011;66891;46.884;17.436;2024-02-16T00:53:44;18.70;;;8.48;;
77591;SDS011;66891;46.884;17.436;2024-02-16T00:56:11;19.10;;;8.23;;
77591;SDS011;66891;46.884;17.436;2024-02-16T00:58:39;18.13;;;8.32;;
77591;SDS011;66891;46.884;17.436;2024-02-16T01:01:08;16.60;;;7.95;;
77591;SDS011;66891;46.884;17.436;2024-02-16T01:03:37;17.97;;;8.23;;
77591;SDS011;66891;46.884;17.436;2024-02-16T01:06:05;18.67;;;8.13;;
77591;SDS011;66891;46.884;17.436;2024-02-16T01:08:32;18.95;;;8.18;;
77591;SDS011;66891;46.884;17.436;2024-02-16T01:10:59;18.77;;;8.35;;
77591;SDS011;66891;46.884;17.436;2024-02-16T01:13:26;19.25;;;8.80;;
77591;SDS011;66891;46.884;17.436;2024-02-16T01:15:53;18.60;;;8.77;;
77591;SDS011;66891;46.884;17.436;2024-02-16T01:18:22;21.23;;;8.63;;
77591;SDS011;66891;46.884;17.436;2024-02-16T01:20:49;22.20;;;9.55;;
77591;SDS011;66891;46.884;17.436;2024-02-16T01:23:16;21.10;;;8.63;;
77591;SDS011;66891;46.884;17.436;2024-02-16T01:25:43;20.27;;;9.57;;
77591;SDS011;66891;46.884;17.436;2024-02-16T01:28:10;21.73;;;10.00;;
77591;SDS011;66891;46.884;17.436;2024-02-16T01:30:40;22.20;;;10.10;;
77591;SDS011;66891;46.884;17.436;2024-02-16T01:33:07;24.95;;;11.02;;
77591;SDS011;66891;46.884;17.436;2024-02-16T01:35:35;21.55;;;9.25;;
77591;SDS011;66891;46.884;17.436;2024-02-16T01:38:03;23.50;;;10.02;;
77591;SDS011;66891;46.884;17.436;2024-02-16T01:40:30;21.67;;;9.60;;
77591;SDS011;66891;46.884;17.436;2024-02-16T01:42:57;23.05;;;9.90;;
77591;SDS011;66891;46.884;17.436;2024-02-16T01:45:24;21.90;;;10.27;;
77591;SDS011;66891;46.884;17.436;2024-02-16T01:47:51;23.02;;;9.60;;
77591;SDS011;66891;46.884;17.436;2024-02-16T01:50:18;23.30;;;9.32;;
77591;SDS011;66891;46.884;17.436;2024-02-16T01:52:47;22.20;;;9.37;;
77591;SDS011;66891;46.884;17.436;2024-02-16T01:55:14;20.10;;;9.45;;
77591;SDS011;66891;46.884;17.436;2024-02-16T01:57:42;19.40;;;8.73;;
77591;SDS011;66891;46.884;17.436;2024-02-16T02:00:10;25.50;;;9.63;;
77591;SDS011;66891;46.884;17.436;2024-02-16T02:02:37;21.15;;;9.55;;
77591;SDS011;66891;46.884;17.436;2024-02-16T02:05:04;20.97;;;9.50;;
77591;SDS011;66891;46.884;17.436;2024-02-16T02:07:31;21.73;;;9.50;;
77591;SDS011;66891;46.884;17.436;2024-02-16T02:10:00;23.45;;;9.93;;
77591;SDS011;66891;46.884;17.436;2024-02-16T02:12:27;20.85;;;9.50;;
77591;SDS011;66891;46.884;17.436;2024-02-16T02:14:54;21.90;;;9.40;;
77591;SDS011;66891;46.884;17.436;2024-02-16T02:17:21;21.30;;;9.30;;
77591;SDS011;66891;46.884;17.436;2024-02-16T02:19:48;20.73;;;9.48;;
77591;SDS011;66891;46.884;17.436;2024-02-16T02:22:17;22.25;;;9.65;;
77591;SDS011;66891;46.884;17.436;2024-02-16T02:24:44;20.70;;;9.32;;
77591;SDS011;66891;46.884;17.436;2024-02-16T02:27:12;20.35;;;8.80;;
77591;SDS011;66891;46.884;17.436;2024-02-16T02:29:40;20.50;;;9.37;;
77591;SDS011;66891;46.884;17.436;2024-02-16T02:32:07;23.02;;;8.95;;
77591;SDS011;66891;46.884;17.436;2024-02-16T02:34:34;23.40;;;10.02;;
77591;SDS011;66891;46.884;17.436;2024-02-16T02:37:03;22.08;;;9.93;;
77591;SDS011;66891;46.884;17.436;2024-02-16T02:39:34;21.95;;;9.30;;
77591;SDS011;66891;46.884;17.436;2024-02-16T02:42:01;23.40;;;9.30;;
77591;SDS011;66891;46.884;17.436;2024-02-16T02:44:29;22.02;;;9.70;;
77591;SDS011;66891;46.884;17.436;2024-02-16T02:46:58;23.25;;;10.60;;
77591;SDS011;66891;46.884;17.436;2024-02-16T02:49:25;21.73;;;9.50;;
77591;SDS011;66891;46.884;17.436;2024-02-16T02:51:52;19.90;;;9.15;;
77591;SDS011;66891;46.884;17.436;2024-02-16T02:54:19;21.17;;;9.30;;
77591;SDS011;66891;46.884;17.436;2024-02-16T02:56:47;21.85;;;9.23;;
77591;SDS011;66891;46.884;17.436;2024-02-16T02:59:15;20.15;;;8.95;;
77591;SDS011;66891;46.884;17.436;2024-02-16T03:01:42;21.48;;;8.93;;
77591;SDS011;66891;46.884;17.436;2024-02-16T03:04:09;20.83;;;8.45;;
77591;SDS011;66891;46.884;17.436;2024-02-16T03:06:36;21.17;;;8.60;;
77591;SDS011;66891;46.884;17.436;2024-02-16T03:09:03;18.63;;;8.50;;
77591;SDS011;66891;46.884;17.436;2024-02-16T03:11:30;22.05;;;8.55;;
77591;SDS011;66891;46.884;17.436;2024-02-16T03:13:59;19.35;;;8.50;;
77591;SDS011;66891;46.884;17.436;2024-02-16T03:16:26;19.98;;;8.95;;
77591;SDS011;66891;46.884;17.436;2024-02-16T03:18:53;18.43;;;7.73;;
77591;SDS011;66891;46.884;17.436;2024-02-16T03:21:21;19.20;;;8.05;;
77591;SDS011;66891;46.884;17.436;2024-02-16T03:23:48;18.33;;;8.23;;
77591;SDS011;66891;46.884;17.436;2024-02-16T03:26:16;19.33;;;8.10;;
77591;SDS011;66891;46.884;17.436;2024-02-16T03:28:46;17.73;;;7.90;;
77591;SDS011;66891;46.884;17.436;2024-02-16T03:31:18;19.30;;;7.43;;
77591;SDS011;66891;46.884;17.436;2024-02-16T03:33:45;17.75;;;7.80;;
77591;SDS011;66891;46.884;17.436;2024-02-16T03:36:12;19.48;;;8.10;;
77591;SDS011;66891;46.884;17.436;2024-02-16T03:38:43;19.60;;;7.55;;
77591;SDS011;66891;46.884;17.436;2024-02-16T03:41:12;18.92;;;7.97;;
77591;SDS011;66891;46.884;17.436;2024-02-16T03:43:39;21.63;;;8.23;;
77591;SDS011;66891;46.884;17.436;2024-02-16T03:46:06;18.08;;;7.80;;
77591;SDS011;66891;46.884;17.436;2024-02-16T03:48:34;17.85;;;7.35;;
77591;SDS011;66891;46.884;17.436;2024-02-16T03:51:02;18.92;;;7.70;;
77591;SDS011;66891;46.884;17.436;2024-02-16T03:53:30;17.10;;;6.97;;
77591;SDS011;66891;46.884;17.436;2024-02-16T03:55:57;16.27;;;7.40;;
77591;SDS011;66891;46.884;17.436;2024-02-16T03:58:24;16.63;;;7.18;;
77591;SDS011;66891;46.884;17.436;2024-02-16T04:00:51;17.35;;;7.45;;
77591;SDS011;66891;46.884;17.436;2024-02-16T04:03:19;17.05;;;7.53;;
77591;SDS011;66891;46.884;17.436;2024-02-16T04:05:48;18.02;;;7.25;;
77591;SDS011;66891;46.884;17.436;2024-02-16T04:08:15;17.47;;;7.30;;
77591;SDS011;66891;46.884;17.436;2024-02-16T04:10:42;18.23;;;7.50;;
77591;SDS011;66891;46.884;17.436;2024-02-16T04:13:09;18.10;;;7.25;;
77591;SDS011;66891;46.884;17.436;2024-02-16T04:15:36;20.48;;;7.63;;
77591;SDS011;66891;46.884;17.436;2024-02-16T04:18:04;17.25;;;7.55;;
77591;SDS011;66891;46.884;17.436;2024-02-16T04:20:31;15.43;;;6.33;;
77591;SDS011;66891;46.884;17.436;2024-02-16T04:22:59;15.40;;;6.30;;
77591;SDS011;66891;46.884;17.436;2024-02-16T04:25:26;19.02;;;7.07;;
77591;SDS011;66891;46.884;17.436;2024-02-16T04:27:54;16.15;;;6.50;;
77591;SDS011;66891;46.884;17.436;2024-02-16T04:30:21;17.48;;;6.55;;
77591;SDS011;66891;46.884;17.436;2024-02-16T04:32:48;17.67;;;6.67;;
77591;SDS011;66891;46.884;17.436;2024-02-16T04:35:15;15.13;;;5.75;;
77591;SDS011;66891;46.884;17.436;2024-02-16T04:37:43;16.52;;;7.13;;
77591;SDS011;66891;46.884;17.436;2024-02-16T04:40:12;18.27;;;6.72;;
77591;SDS011;66891;46.884;17.436;2024-02-16T04:42:39;18.95;;;6.90;;
77591;SDS011;66891;46.884;17.436;2024-02-16T04:45:11;18.67;;;6.60;;
77591;SDS011;66891;46.884;17.436;2024-02-16T04:47:38;16.08;;;6.57;;
77591;SDS011;66891;46.884;17.436;2024-02-16T04:50:05;17.95;;;7.43;;
77591;SDS011;66891;46.884;17.436;2024-02-16T04:52:32;20.83;;;8.27;;
77591;SDS011;66891;46.884;17.436;2024-02-16T04:54:59;21.27;;;9.25;;
77591;SDS011;66891;46.884;17.436;2024-02-16T04:57:28;24.03;;;10.77;;
77591;SDS011;66891;46.884;17.436;2024-02-16T04:59:55;23.90;;;10.25;;
77591;SDS011;66891;46.884;17.436;2024-02-16T05:02:22;21.17;;;8.98;;
77591;SDS011;66891;46.884;17.436;2024-02-16T05:04:49;23.48;;;8.40;;
77591;SDS011;66891;46.884;17.436;2024-02-16T05:07:16;20.88;;;8.50;;
77591;SDS011;66891;46.884;17.436;2024-02-16T05:09:43;22.67;;;8.77;;
77591;SDS011;66891;46.884;17.436;2024-02-16T05:12:11;21.30;;;8.80;;
77591;SDS011;66891;46.884;17.436;2024-02-16T05:14:39;19.17;;;8.93;;
77591;SDS011;66891;46.884;17.436;2024-02-16T05:17:08;23.92;;;10.40;;
77591;SDS011;66891;46.884;17.436;2024-02-16T05:19:35;24.33;;;10.27;;
77591;SDS011;66891;46.884;17.436;2024-02-16T05:22:03;22.40;;;10.00;;
77591;SDS011;66891;46.884;17.436;2024-02-16T05:24:30;25.55;;;10.38;;
77591;SDS011;66891;46.884;17.436;2024-02-16T05:26:57;22.65;;;10.00;;
77591;SDS011;66891;46.884;17.436;2024-02-16T05:29:25;26.10;;;9.70;;
77591;SDS011;66891;46.884;17.436;2024-02-16T05:31:54;23.98;;;10.07;;
77591;SDS011;66891;46.884;17.436;2024-02-16T05:34:21;25.27;;;10.20;;
77591;SDS011;66891;46.884;17.436;2024-02-16T05:36:49;28.60;;;11.15;;
77591;SDS011;66891;46.884;17.436;2024-02-16T05:39:16;26.85;;;10.35;;
77591;SDS011;66891;46.884;17.436;2024-02-16T05:41:58;25.20;;;10.32;;
77591;SDS011;66891;46.884;17.436;2024-02-16T05:44:25;23.48;;;9.85;;
77591;SDS011;66891;46.884;17.436;2024-02-16T05:46:54;23.03;;;9.30;;
77591;SDS011;66891;46.884;17.436;2024-02-16T05:49:21;23.20;;;9.63;;
77591;SDS011;66891;46.884;17.436;2024-02-16T05:51:49;23.88;;;9.80;;
77591;SDS011;66891;46.884;17.436;2024-02-16T05:54:40;23.00;;;9.45;;
77591;SDS011;66891;46.884;17.436;2024-02-16T05:57:07;22.40;;;9.25;;
77591;SDS011;66891;46.884;17.436;2024-02-16T05:59:36;20.77;;;9.00;;
77591;SDS011;66891;46.884;17.436;2024-02-16T06:02:04;20.90;;;9.10;;
77591;SDS011;66891;46.884;17.436;2024-02-16T06:04:33;19.67;;;8.68;;
77591;SDS011;66891;46.884;17.436;2024-02-16T06:07:00;19.83;;;8.70;;
77591;SDS011;66891;46.884;17.436;2024-02-16T06:09:27;22.40;;;9.35;;
77591;SDS011;66891;46.884;17.436;2024-02-16T06:12:01;23.00;;;9.90;;
77591;SDS011;66891;46.884;17.436;2024-02-16T06:14:30;21.05;;;9.70;;
77591;SDS011;66891;46.884;17.436;2024-02-16T06:16:57;21.95;;;9.68;;
77591;SDS011;66891;46.884;17.436;2024-02-16T06:19:26;20.90;;;9.98;;
77591;SDS011;66891;46.884;17.436;2024-02-16T06:21:53;23.92;;;10.80;;
77591;SDS011;66891;46.884;17.436;2024-02-16T06:24:23;26.83;;;11.23;;
77591;SDS011;66891;46.884;17.436;2024-02-16T06:27:05;32.33;;;13.82;;
77591;SDS011;66891;46.884;17.436;2024-02-16T06:29:32;39.08;;;16.60;;
77591;SDS011;66891;46.884;17.436;2024-02-16T06:31:59;38.03;;;15.40;;
77591;SDS011;66891;46.884;17.436;2024-02-16T06:34:30;34.63;;;14.15;;
77591;SDS011;66891;46.884;17.436;2024-02-16T06:36:58;33.57;;;13.13;;
77591;SDS011;66891;46.884;17.436;2024-02-16T06:39:25;32.53;;;13.60;;
77591;SDS011;66891;46.884;17.436;2024-02-16T06:42:00;37.50;;;14.35;;
77591;SDS011;66891;46.884;17.436;2024-02-16T06:44:27;30.70;;;13.93;;
77591;SDS011;66891;46.884;17.436;2024-02-16T06:46:54;27.75;;;13.40;;
77591;SDS011;66891;46.884;17.436;2024-02-16T06:49:22;27.90;;;11.43;;
77591;SDS011;66891;46.884;17.436;2024-02-16T06:51:50;28.33;;;11.85;;
77591;SDS011;66891;46.884;17.436;2024-02-16T06:54:17;28.30;;;13.27;;
77591;SDS011;66891;46.884;17.436;2024-02-16T06:56:44;28.02;;;12.77;;
77591;SDS011;66891;46.884;17.436;2024-02-16T06:59:11;27.80;;;12.10;;
77591;SDS011;66891;46.884;17.436;2024-02-16T07:01:38;27.70;;;13.10;;
77591;SDS011;66891;46.884;17.436;2024-02-16T07:04:05;34.60;;;15.10;;
77591;SDS011;66891;46.884;17.436;2024-02-16T07:06:32;45.38;;;22.45;;
77591;SDS011;66891;46.884;17.436;2024-02-16T07:09:01;26.08;;;12.55;;
77591;SDS011;66891;46.884;17.436;2024-02-16T07:11:29;23.00;;;10.30;;
77591;SDS011;66891;46.884;17.436;2024-02-16T07:13:56;21.93;;;10.47;;
77591;SDS011;66891;46.884;17.436;2024-02-16T07:16:23;22.45;;;10.50;;
77591;SDS011;66891;46.884;17.436;2024-02-16T07:18:50;26.65;;;12.10;;
77591;SDS011;66891;46.884;17.436;2024-02-16T07:21:17;35.22;;;15.85;;
77591;SDS011;66891;46.884;17.436;2024-02-16T07:23:47;29.38;;;14.98;;
77591;SDS011;66891;46.884;17.436;2024-02-16T07:26:16;42.53;;;20.97;;
77591;SDS011;66891;46.884;17.436;2024-02-16T07:28:44;51.08;;;25.23;;
77591;SDS011;66891;46.884;17.436;2024-02-16T07:31:11;26.08;;;12.50;;
77591;SDS011;66891;46.884;17.436;2024-02-16T07:33:52;28.15;;;13.98;;
77591;SDS011;66891;46.884;17.436;2024-02-16T07:36:20;21.75;;;8.98;;
77591;SDS011;66891;46.884;17.436;2024-02-16T07:38:47;22.97;;;10.17;;
77591;SDS011;66891;46.884;17.436;2024-02-16T07:41:16;21.38;;;9.43;;
77591;SDS011;66891;46.884;17.436;2024-02-16T07:43:43;20.45;;;9.57;;
77591;SDS011;66891;46.884;17.436;2024-02-16T07:46:10;20.45;;;9.85;;
77591;SDS011;66891;46.884;17.436;2024-02-16T07:48:37;21.30;;;9.23;;
77591;SDS011;66891;46.884;17.436;2024-02-16T07:51:04;19.80;;;9.03;;
77591;SDS011;66891;46.884;17.436;2024-02-16T07:53:31;20.45;;;8.80;;
77591;SDS011;66891;46.884;17.436;2024-02-16T07:56:00;19.00;;;8.55;;
77591;SDS011;66891;46.884;17.436;2024-02-16T07:58:28;19.25;;;8.73;;
77591;SDS011;66891;46.884;17.436;2024-02-16T08:03:33;18.23;;;9.00;;
77591;SDS011;66891;46.884;17.436;2024-02-16T08:06:00;21.30;;;8.60;;
77591;SDS011;66891;46.884;17.436;2024-02-16T08:08:28;19.95;;;8.20;;
77591;SDS011;66891;46.884;17.436;2024-02-16T08:10:55;19.55;;;8.27;;
77591;SDS011;66891;46.884;17.436;2024-02-16T08:13:24;20.17;;;8.70;;
77591;SDS011;66891;46.884;17.436;2024-02-16T08:19:04;25.65;;;10.40;;
77591;SDS011;66891;46.884;17.436;2024-02-16T08:21:35;21.48;;;9.38;;
77591;SDS011;66891;46.884;17.436;2024-02-16T08:24:05;20.17;;;8.45;;
77591;SDS011;66891;46.884;17.436;2024-02-16T08:26:33;19.67;;;9.45;;
77591;SDS011;66891;46.884;17.436;2024-02-16T08:29:00;18.53;;;8.03;;
77591;SDS011;66891;46.884;17.436;2024-02-16T08:31:27;16.80;;;7.80;;
77591;SDS011;66891;46.884;17.436;2024-02-16T08:36:48;18.77;;;7.40;;
77591;SDS011;66891;46.884;17.436;2024-02-16T08:39:16;18.27;;;7.70;;
77591;SDS011;66891;46.884;17.436;2024-02-16T08:41:48;18.30;;;7.30;;
77591;SDS011;66891;46.884;17.436;2024-02-16T08:44:15;18.52;;;8.05;;
77591;SDS011;66891;46.884;17.436;2024-02-16T08:46:43;16.42;;;8.02;;
77591;SDS011;66891;46.884;17.436;2024-02-16T08:49:11;18.10;;;7.65;;
77591;SDS011;66891;46.884;17.436;2024-02-16T08:51:38;17.92;;;7.53;;
77591;SDS011;66891;46.884;17.436;2024-02-16T08:54:22;17.20;;;7.67;;
77591;SDS011;66891;46.884;17.436;2024-02-16T08:57:13;16.92;;;6.22;;
77591;SDS011;66891;46.884;17.436;2024-02-16T08:59:53;17.25;;;6.38;;
77591;SDS011;66891;46.884;17.436;2024-02-16T09:02:32;16.77;;;6.38;;
77591;SDS011;66891;46.884;17.436;2024-02-16T09:05:03;13.60;;;5.22;;
77591;SDS011;66891;46.884;17.436;2024-02-16T09:07:30;14.80;;;6.00;;
77591;SDS011;66891;46.884;17.436;2024-02-16T09:09:59;17.88;;;6.45;;
77591;SDS011;66891;46.884;17.436;2024-02-16T09:12:27;13.75;;;5.75;;
77591;SDS011;66891;46.884;17.436;2024-02-16T09:14:54;14.07;;;6.10;;
77591;SDS011;66891;46.884;17.436;2024-02-16T09:17:21;17.52;;;5.82;;
77591;SDS011;66891;46.884;17.436;2024-02-16T09:19:48;14.87;;;6.23;;
77591;SDS011;66891;46.884;17.436;2024-02-16T09:22:16;15.77;;;6.18;;
77591;SDS011;66891;46.884;17.436;2024-02-16T09:24:43;14.65;;;5.68;;
77591;SDS011;66891;46.884;17.436;2024-02-16T09:27:15;13.05;;;5.47;;
77591;SDS011;66891;46.884;17.436;2024-02-16T09:29:44;12.48;;;5.30;;
77591;SDS011;66891;46.884;17.436;2024-02-16T09:32:11;13.77;;;6.00;;
77591;SDS011;66891;46.884;17.436;2024-02-16T09:34:39;12.82;;;4.93;;
77591;SDS011;66891;46.884;17.436;2024-02-16T09:37:09;13.35;;;5.82;;
77591;SDS011;66891;46.884;17.436;2024-02-16T09:39:36;14.68;;;5.05;;
77591;SDS011;66891;46.884;17.436;2024-02-16T09:42:03;11.27;;;4.70;;
77591;SDS011;66891;46.884;17.436;2024-02-16T09:44:32;13.27;;;4.67;;
77591;SDS011;66891;46.884;17.436;2024-02-16T09:47:02;12.27;;;4.70;;
77591;SDS011;66891;46.884;17.436;2024-02-16T09:49:30;10.90;;;4.43;;
77591;SDS011;66891;46.884;17.436;2024-02-16T09:52:06;11.20;;;4.40;;
77591;SDS011;66891;46.884;17.436;2024-02-16T09:54:46;12.32;;;4.95;;
77591;SDS011;66891;46.884;17.436;2024-02-16T09:57:16;13.13;;;5.17;;
77591;SDS011;66891;46.884;17.436;2024-02-16T09:59:44;12.65;;;5.70;;
77591;SDS011;66891;46.884;17.436;2024-02-16T10:02:12;13.82;;;5.35;;
77591;SDS011;66891;46.884;17.436;2024-02-16T10:04:39;12.95;;;4.90;;
77591;SDS011;66891;46.884;17.436;2024-02-16T10:07:06;13.02;;;4.50;;
77591;SDS011;66891;46.884;17.436;2024-02-16T10:09:39;11.23;;;4.13;;
77591;SDS011;66891;46.884;17.436;2024-02-16T10:12:09;13.70;;;4.78;;
77591;SDS011;66891;46.884;17.436;2024-02-16T10:14:37;11.45;;;5.10;;
77591;SDS011;66891;46.884;17.436;2024-02-16T10:17:09;11.88;;;4.75;;
77591;SDS011;66891;46.884;17.436;2024-02-16T10:19:42;13.77;;;5.55;;
77591;SDS011;66891;46.884;17.436;2024-02-16T10:22:13;14.07;;;4.87;;
77591;SDS011;66891;46.884;17.436;2024-02-16T10:24:44;11.40;;;5.10;;
77591;SDS011;66891;46.884;17.436;2024-02-16T10:27:14;13.32;;;5.53;;
77591;SDS011;66891;46.884;17.436;2024-02-16T10:29:43;14.30;;;5.18;;
77591;SDS011;66891;46.884;17.436;2024-02-16T10:32:12;13.40;;;5.22;;
77591;SDS011;66891;46.884;17.436;2024-02-16T10:34:39;13.63;;;5.63;;
77591;SDS011;66891;46.884;17.436;2024-02-16T10:37:08;13.13;;;5.13;;
77591;SDS011;66891;46.884;17.436;2024-02-16T10:39:35;11.27;;;5.03;;
77591;SDS011;66891;46.884;17.436;2024-02-16T10:42:05;14.65;;;6.90;;
77591;SDS011;66891;46.884;17.436;2024-02-16T10:44:40;12.20;;;5.03;;
77591;SDS011;66891;46.884;17.436;2024-02-16T10:47:09;13.67;;;5.73;;
77591;SDS011;66891;46.884;17.436;2024-02-16T10:49:39;12.77;;;5.25;;
77591;SDS011;66891;46.884;17.436;2024-02-16T10:52:07;13.27;;;5.03;;
77591;SDS011;66891;46.884;17.436;2024-02-16T10:54:34;13.38;;;4.88;;
77591;SDS011;66891;46.884;17.436;2024-02-16T10:57:02;13.27;;;5.30;;
77591;SDS011;66891;46.884;17.436;2024-02-16T10:59:40;12.20;;;5.20;;
77591;SDS011;66891;46.884;17.436;2024-02-16T11:02:10;12.98;;;5.03;;
77591;SDS011;66891;46.884;17.436;2024-02-16T11:04:52;12.88;;;5.50;;
77591;SDS011;66891;46.884;17.436;2024-02-16T11:07:20;13.05;;;5.60;;
77591;SDS011;66891;46.884;17.436;2024-02-16T11:09:47;11.25;;;4.75;;
77591;SDS011;66891;46.884;17.436;2024-02-16T11:12:16;10.60;;;4.67;;
77591;SDS011;66891;46.884;17.436;2024-02-16T11:14:45;12.32;;;4.82;;
77591;SDS011;66891;46.884;17.436;2024-02-16T11:17:36;12.13;;;4.60;;
77591;SDS011;66891;46.884;17.436;2024-02-16T11:20:27;11.77;;;4.90;;
77591;SDS011;66891;46.884;17.436;2024-02-16T11:23:04;13.00;;;5.13;;
77591;SDS011;66891;46.884;17.436;2024-02-16T11:25:32;12.33;;;5.00;;
77591;SDS011;66891;46.884;17.436;2024-02-16T11:27:59;12.93;;;5.07;;
77591;SDS011;66891;46.884;17.436;2024-02-16T11:30:26;12.00;;;5.57;;
77591;SDS011;66891;46.884;17.436;2024-02-16T11:32:54;12.30;;;5.00;;
77591;SDS011;66891;46.884;17.436;2024-02-16T11:35:21;15.07;;;5.00;;
77591;SDS011;66891;46.884;17.436;2024-02-16T11:40:58;11.27;;;4.60;;
77591;SDS011;66891;46.884;17.436;2024-02-16T11:43:25;12.88;;;4.68;;
77591;SDS011;66891;46.884;17.436;2024-02-16T11:45:53;13.18;;;5.15;;
77591;SDS011;66891;46.884;17.436;2024-02-16T11:48:21;10.75;;;5.00;;
77591;SDS011;66891;46.884;17.436;2024-02-16T11:50:58;13.10;;;4.83;;
77591;SDS011;66891;46.884;17.436;2024-02-16T11:53:25;11.50;;;5.03;;
77591;SDS011;66891;46.884;17.436;2024-02-16T11:55:55;13.80;;;5.22;;
77591;SDS011;66891;46.884;17.436;2024-02-16T11:58:24;13.95;;;5.65;;
77591;SDS011;66891;46.884;17.436;2024-02-16T12:00:53;12.23;;;5.07;;
77591;SDS011;66891;46.884;17.436;2024-02-16T12:03:20;12.20;;;4.47;;
77591;SDS011;66891;46.884;17.436;2024-02-16T12:05:51;10.10;;;3.95;;
77591;SDS011;66891;46.884;17.436;2024-02-16T12:08:19;12.95;;;5.05;;
77591;SDS011;66891;46.884;17.436;2024-02-16T12:10:47;12.77;;;4.93;;
77591;SDS011;66891;46.884;17.436;2024-02-16T12:13:15;12.85;;;5.47;;
77591;SDS011;66891;46.884;17.436;2024-02-16T12:15:45;12.80;;;4.97;;
77591;SDS011;66891;46.884;17.436;2024-02-16T12:18:21;10.13;;;4.55;;
77591;SDS011;66891;46.884;17.436;2024-02-16T12:20:59;11.90;;;4.68;;
77591;SDS011;66891;46.884;17.436;2024-02-16T12:23:26;12.18;;;4.70;;
77591;SDS011;66891;46.884;17.436;2024-02-16T12:25:54;11.13;;;4.03;;
77591;SDS011;66891;46.884;17.436;2024-02-16T12:28:25;10.83;;;3.97;;
77591;SDS011;66891;46.884;17.436;2024-02-16T12:31:00;10.40;;;5.18;;
77591;SDS011;66891;46.884;17.436;2024-02-16T12:33:30;13.43;;;4.78;;
77591;SDS011;66891;46.884;17.436;2024-02-16T12:35:57;12.25;;;4.43;;
77591;SDS011;66891;46.884;17.436;2024-02-16T12:38:25;13.43;;;4.43;;
77591;SDS011;66891;46.884;17.436;2024-02-16T12:40:54;11.60;;;4.43;;
77591;SDS011;66891;46.884;17.436;2024-02-16T12:43:21;12.90;;;4.60;;
77591;SDS011;66891;46.884;17.436;2024-02-16T12:45:48;12.02;;;4.50;;
77591;SDS011;66891;46.884;17.436;2024-02-16T12:48:16;12.40;;;4.63;;
77591;SDS011;66891;46.884;17.436;2024-02-16T12:50:44;10.73;;;4.50;;
77591;SDS011;66891;46.884;17.436;2024-02-16T12:53:13;15.47;;;5.33;;
77591;SDS011;66891;46.884;17.436;2024-02-16T12:55:40;13.05;;;5.65;;
77591;SDS011;66891;46.884;17.436;2024-02-16T12:58:08;12.50;;;4.60;;
77591;SDS011;66891;46.884;17.436;2024-02-16T13:00:37;12.05;;;5.20;;
77591;SDS011;66891;46.884;17.436;2024-02-16T13:03:04;12.07;;;4.75;;
77591;SDS011;66891;46.884;17.436;2024-02-16T13:05:32;11.40;;;4.40;;
77591;SDS011;66891;46.884;17.436;2024-02-16T13:08:00;12.18;;;4.80;;
77591;SDS011;66891;46.884;17.436;2024-02-16T13:10:30;10.52;;;4.53;;
77591;SDS011;66891;46.884;17.436;2024-02-16T13:12:57;11.60;;;4.70;;
77591;SDS011;66891;46.884;17.436;2024-02-16T13:15:24;11.38;;;5.35;;
77591;SDS011;66891;46.884;17.436;2024-02-16T13:17:55;11.87;;;5.53;;
77591;SDS011;66891;46.884;17.436;2024-02-16T13:20:22;12.13;;;5.03;;
77591;SDS011;66891;46.884;17.436;2024-02-16T13:22:51;14.00;;;5.82;;
77591;SDS011;66891;46.884;17.436;2024-02-16T13:25:18;13.88;;;6.30;;
77591;SDS011;66891;46.884;17.436;2024-02-16T13:27:45;10.88;;;4.82;;
77591;SDS011;66891;46.884;17.436;2024-02-16T13:30:13;12.77;;;5.43;;
77591;SDS011;66891;46.884;17.436;2024-02-16T13:32:40;11.32;;;4.70;;
77591;SDS011;66891;46.884;17.436;2024-02-16T13:35:07;13.95;;;6.45;;
77591;SDS011;66891;46.884;17.436;2024-02-16T13:37:35;15.75;;;7.40;;
77591;SDS011;66891;46.884;17.436;2024-02-16T13:40:05;12.32;;;5.18;;
77591;SDS011;66891;46.884;17.436;2024-02-16T13:42:37;12.03;;;5.10;;
77591;SDS011;66891;46.884;17.436;2024-02-16T13:45:05;14.43;;;5.07;;
77591;SDS011;66891;46.884;17.436;2024-02-16T13:47:32;12.55;;;5.10;;
77591;SDS011;66891;46.884;17.436;2024-02-16T13:50:00;12.90;;;5.15;;
77591;SDS011;66891;46.884;17.436;2024-02-16T13:52:27;10.55;;;4.47;;
77591;SDS011;66891;46.884;17.436;2024-02-16T13:54:54;13.67;;;4.93;;
77591;SDS011;66891;46.884;17.436;2024-02-16T13:57:23;13.48;;;4.72;;
77591;SDS011;66891;46.884;17.436;2024-02-16T13:59:50;10.82;;;4.30;;
77591;SDS011;66891;46.884;17.436;2024-02-16T14:02:17;13.98;;;5.72;;
77591;SDS011;66891;46.884;17.436;2024-02-16T14:04:44;14.73;;;5.95;;
77591;SDS011;66891;46.884;17.436;2024-02-16T14:07:12;10.57;;;4.40;;
77591;SDS011;66891;46.884;17.436;2024-02-16T14:09:39;11.40;;;4.78;;
77591;SDS011;66891;46.884;17.436;2024-02-16T14:12:07;10.48;;;4.70;;
77591;SDS011;66891;46.884;17.436;2024-02-16T14:14:35;11.02;;;4.57;;
77591;SDS011;66891;46.884;17.436;2024-02-16T14:17:04;12.77;;;4.35;;
77591;SDS011;66891;46.884;17.436;2024-02-16T14:19:31;11.60;;;4.83;;
77591;SDS011;66891;46.884;17.436;2024-02-16T14:22:01;13.40;;;4.38;;
77591;SDS011;66891;46.884;17.436;2024-02-16T14:24:28;11.70;;;4.32;;
77591;SDS011;66891;46.884;17.436;2024-02-16T14:26:55;10.85;;;4.10;;
77591;SDS011;66891;46.884;17.436;2024-02-16T14:29:23;10.88;;;3.88;;
77591;SDS011;66891;46.884;17.436;2024-02-16T14:31:51;9.77;;;3.67;;
77591;SDS011;66891;46.884;17.436;2024-02-16T14:34:18;9.95;;;3.78;;
77591;SDS011;66891;46.884;17.436;2024-02-16T14:36:46;8.85;;;3.60;;
77591;SDS011;66891;46.884;17.436;2024-02-16T14:39:13;12.13;;;3.47;;
77591;SDS011;66891;46.884;17.436;2024-02-16T14:41:42;9.45;;;3.75;;